sensor_id;sensor_type;location;lat;lon;timestamp;temperature;humidity
71142;DHT22;58808;59.366;17.970;2023-04-15T00:01:21;3.10;99.90
71142;DHT22;58808;59.366;17.970;2023-04-15T00:03:51;3.10;99.90
71142;DHT22;58808;59.366;17.970;2023-04-15T00:06:18;3.10;99.90
71142;DHT22;58808;59.366;17.970;2023-04-15T00:08:46;3.10;99.90
71142;DHT22;58808;59.366;17.970;2023-04-15T00:11:12;3.10;99.90
71142;DHT22;58808;59.366;17.970;2023-04-15T00:13:38;3.10;99.90
71142;DHT22;58808;59.366;17.970;2023-04-15T00:16:05;3.10;99.90
71142;DHT22;58808;59.366;17.970;2023-04-15T00:18:33;3.10;99.90
71142;DHT22;58808;59.366;17.970;2023-04-15T00:20:59;3.10;99.90
71142;DHT22;58808;59.366;17.970;2023-04-15T00:23:25;3.10;99.90
71142;DHT22;58808;59.366;17.970;2023-04-15T00:25:51;3.10;99.90
71142;DHT22;58808;59.366;17.970;2023-04-15T00:28:17;3.10;99.90
71142;DHT22;58808;59.366;17.970;2023-04-15T00:30:43;3.10;99.90
71142;DHT22;58808;59.366;17.970;2023-04-15T00:33:09;3.10;99.90
71142;DHT22;58808;59.366;17.970;2023-04-15T00:35:35;3.10;99.90
71142;DHT22;58808;59.366;17.970;2023-04-15T00:38:05;3.10;99.90
71142;DHT22;58808;59.366;17.970;2023-04-15T00:40:32;3.10;99.90
71142;DHT22;58808;59.366;17.970;2023-04-15T00:42:58;3.10;99.90
71142;DHT22;58808;59.366;17.970;2023-04-15T00:45:25;3.00;99.90
71142;DHT22;58808;59.366;17.970;2023-04-15T00:47:51;3.10;99.90
71142;DHT22;58808;59.366;17.970;2023-04-15T00:50:16;3.10;99.90
71142;DHT22;58808;59.366;17.970;2023-04-15T00:52:42;3.10;99.90
71142;DHT22;58808;59.366;17.970;2023-04-15T00:55:08;3.10;99.90
71142;DHT22;58808;59.366;17.970;2023-04-15T00:57:35;3.10;99.90
71142;DHT22;58808;59.366;17.970;2023-04-15T01:00:01;3.00;99.90
71142;DHT22;58808;59.366;17.970;2023-04-15T01:02:27;3.10;99.90
71142;DHT22;58808;59.366;17.970;2023-04-15T01:04:53;3.10;99.90
71142;DHT22;58808;59.366;17.970;2023-04-15T01:07:19;3.00;99.90
71142;DHT22;58808;59.366;17.970;2023-04-15T01:09:44;3.10;99.90
71142;DHT22;58808;59.366;17.970;2023-04-15T01:12:14;3.00;99.90
71142;DHT22;58808;59.366;17.970;2023-04-15T01:14:41;3.00;99.90
71142;DHT22;58808;59.366;17.970;2023-04-15T01:17:07;3.10;99.90
71142;DHT22;58808;59.366;17.970;2023-04-15T01:19:34;3.10;99.90
71142;DHT22;58808;59.366;17.970;2023-04-15T01:22:02;3.10;99.90
71142;DHT22;58808;59.366;17.970;2023-04-15T01:24:29;3.10;99.90
71142;DHT22;58808;59.366;17.970;2023-04-15T01:26:56;3.10;99.90
71142;DHT22;58808;59.366;17.970;2023-04-15T01:29:22;3.10;99.90
71142;DHT22;58808;59.366;17.970;2023-04-15T01:31:50;3.10;99.90
71142;DHT22;58808;59.366;17.970;2023-04-15T01:34:16;3.10;99.90
71142;DHT22;58808;59.366;17.970;2023-04-15T01:36:42;3.10;99.90
71142;DHT22;58808;59.366;17.970;2023-04-15T01:39:08;3.10;99.90
71142;DHT22;58808;59.366;17.970;2023-04-15T01:41:34;3.20;99.90
71142;DHT22;58808;59.366;17.970;2023-04-15T01:43:59;3.20;99.90
71142;DHT22;58808;59.366;17.970;2023-04-15T01:46:26;3.20;99.90
71142;DHT22;58808;59.366;17.970;2023-04-15T01:48:52;3.20;99.90
71142;DHT22;58808;59.366;17.970;2023-04-15T01:51:17;3.20;99.90
71142;DHT22;58808;59.366;17.970;2023-04-15T01:53:43;3.20;99.90
71142;DHT22;58808;59.366;17.970;2023-04-15T01:56:09;3.20;99.90
71142;DHT22;58808;59.366;17.970;2023-04-15T01:58:35;3.20;99.90
71142;DHT22;58808;59.366;17.970;2023-04-15T02:01:01;3.20;99.90
71142;DHT22;58808;59.366;17.970;2023-04-15T02:03:28;3.20;99.90
71142;DHT22;58808;59.366;17.970;2023-04-15T02:05:54;3.20;99.90
71142;DHT22;58808;59.366;17.970;2023-04-15T02:08:20;3.20;99.90
71142;DHT22;58808;59.366;17.970;2023-04-15T02:10:45;3.20;99.90
71142;DHT22;58808;59.366;17.970;2023-04-15T02:13:11;3.30;99.90
71142;DHT22;58808;59.366;17.970;2023-04-15T02:15:38;3.30;99.90
71142;DHT22;58808;59.366;17.970;2023-04-15T02:18:04;3.30;99.90
71142;DHT22;58808;59.366;17.970;2023-04-15T02:20:29;3.30;99.90
71142;DHT22;58808;59.366;17.970;2023-04-15T02:22:55;3.30;99.90
71142;DHT22;58808;59.366;17.970;2023-04-15T02:25:21;3.30;99.90
71142;DHT22;58808;59.366;17.970;2023-04-15T02:27:47;3.30;99.90
71142;DHT22;58808;59.366;17.970;2023-04-15T02:30:13;3.40;99.90
71142;DHT22;58808;59.366;17.970;2023-04-15T02:32:39;3.40;99.90
71142;DHT22;58808;59.366;17.970;2023-04-15T02:35:07;3.40;99.90
71142;DHT22;58808;59.366;17.970;2023-04-15T02:37:35;3.40;99.90
71142;DHT22;58808;59.366;17.970;2023-04-15T02:40:14;3.30;99.90
71142;DHT22;58808;59.366;17.970;2023-04-15T02:42:40;3.30;99.90
71142;DHT22;58808;59.366;17.970;2023-04-15T02:45:07;3.40;99.90
71142;DHT22;58808;59.366;17.970;2023-04-15T02:47:34;3.40;99.90
71142;DHT22;58808;59.366;17.970;2023-04-15T02:50:02;3.40;99.90
71142;DHT22;58808;59.366;17.970;2023-04-15T02:52:28;3.40;99.90
71142;DHT22;58808;59.366;17.970;2023-04-15T02:54:54;3.40;99.90
71142;DHT22;58808;59.366;17.970;2023-04-15T02:57:25;3.40;99.90
71142;DHT22;58808;59.366;17.970;2023-04-15T02:59:51;3.40;99.90
71142;DHT22;58808;59.366;17.970;2023-04-15T03:02:17;3.50;99.90
71142;DHT22;58808;59.366;17.970;2023-04-15T03:04:43;3.50;99.90
71142;DHT22;58808;59.366;17.970;2023-04-15T03:07:09;3.50;99.90
71142;DHT22;58808;59.366;17.970;2023-04-15T03:09:34;3.50;99.90
71142;DHT22;58808;59.366;17.970;2023-04-15T03:12:01;3.50;99.90
71142;DHT22;58808;59.366;17.970;2023-04-15T03:14:26;3.50;99.90
71142;DHT22;58808;59.366;17.970;2023-04-15T03:16:52;3.50;99.90
71142;DHT22;58808;59.366;17.970;2023-04-15T03:19:18;3.50;99.90
71142;DHT22;58808;59.366;17.970;2023-04-15T03:21:44;3.50;99.90
71142;DHT22;58808;59.366;17.970;2023-04-15T03:24:10;3.50;99.90
71142;DHT22;58808;59.366;17.970;2023-04-15T03:26:36;3.50;99.90
71142;DHT22;58808;59.366;17.970;2023-04-15T03:29:01;3.50;99.90
71142;DHT22;58808;59.366;17.970;2023-04-15T03:31:27;3.60;99.90
71142;DHT22;58808;59.366;17.970;2023-04-15T03:33:53;3.60;99.90
71142;DHT22;58808;59.366;17.970;2023-04-15T03:36:18;3.60;99.90
71142;DHT22;58808;59.366;17.970;2023-04-15T03:38:44;3.60;99.90
71142;DHT22;58808;59.366;17.970;2023-04-15T03:41:10;3.60;99.90
71142;DHT22;58808;59.366;17.970;2023-04-15T03:43:36;3.60;99.90
71142;DHT22;58808;59.366;17.970;2023-04-15T03:46:02;3.60;99.90
71142;DHT22;58808;59.366;17.970;2023-04-15T03:48:28;3.60;99.90
71142;DHT22;58808;59.366;17.970;2023-04-15T03:50:53;3.60;99.90
71142;DHT22;58808;59.366;17.970;2023-04-15T03:53:20;3.60;99.90
71142;DHT22;58808;59.366;17.970;2023-04-15T03:55:46;3.60;99.90
71142;DHT22;58808;59.366;17.970;2023-04-15T03:58:12;3.60;99.90
71142;DHT22;58808;59.366;17.970;2023-04-15T04:00:38;3.60;99.90
71142;DHT22;58808;59.366;17.970;2023-04-15T04:03:04;3.60;99.90
71142;DHT22;58808;59.366;17.970;2023-04-15T04:05:30;3.60;99.90
71142;DHT22;58808;59.366;17.970;2023-04-15T04:07:56;3.60;99.90
71142;DHT22;58808;59.366;17.970;2023-04-15T04:10:21;3.70;99.90
71142;DHT22;58808;59.366;17.970;2023-04-15T04:12:47;3.60;99.90
71142;DHT22;58808;59.366;17.970;2023-04-15T04:15:13;3.70;99.90
71142;DHT22;58808;59.366;17.970;2023-04-15T04:17:38;3.70;99.90
71142;DHT22;58808;59.366;17.970;2023-04-15T04:20:04;3.70;99.90
71142;DHT22;58808;59.366;17.970;2023-04-15T04:22:31;3.70;99.90
71142;DHT22;58808;59.366;17.970;2023-04-15T04:24:56;3.70;99.90
71142;DHT22;58808;59.366;17.970;2023-04-15T04:27:24;3.70;99.90
71142;DHT22;58808;59.366;17.970;2023-04-15T04:29:50;3.80;99.90
71142;DHT22;58808;59.366;17.970;2023-04-15T04:32:16;3.80;99.90
71142;DHT22;58808;59.366;17.970;2023-04-15T04:34:42;3.80;99.90
71142;DHT22;58808;59.366;17.970;2023-04-15T04:37:07;3.90;99.90
71142;DHT22;58808;59.366;17.970;2023-04-15T04:39:33;3.90;99.90
71142;DHT22;58808;59.366;17.970;2023-04-15T04:41:59;3.90;99.90
71142;DHT22;58808;59.366;17.970;2023-04-15T04:44:25;3.90;99.90
71142;DHT22;58808;59.366;17.970;2023-04-15T04:46:51;3.90;99.90
71142;DHT22;58808;59.366;17.970;2023-04-15T04:49:17;3.90;99.90
71142;DHT22;58808;59.366;17.970;2023-04-15T04:51:43;3.80;99.90
71142;DHT22;58808;59.366;17.970;2023-04-15T04:54:08;3.90;99.90
71142;DHT22;58808;59.366;17.970;2023-04-15T04:56:34;3.90;99.90
71142;DHT22;58808;59.366;17.970;2023-04-15T04:59:00;3.90;99.90
71142;DHT22;58808;59.366;17.970;2023-04-15T05:01:26;3.90;99.90
71142;DHT22;58808;59.366;17.970;2023-04-15T05:03:52;3.80;99.90
71142;DHT22;58808;59.366;17.970;2023-04-15T05:06:17;3.90;99.90
71142;DHT22;58808;59.366;17.970;2023-04-15T05:08:43;3.90;99.90
71142;DHT22;58808;59.366;17.970;2023-04-15T05:11:11;3.90;99.90
71142;DHT22;58808;59.366;17.970;2023-04-15T05:13:37;3.90;99.90
71142;DHT22;58808;59.366;17.970;2023-04-15T05:16:06;3.90;99.90
71142;DHT22;58808;59.366;17.970;2023-04-15T05:18:32;3.90;99.90
71142;DHT22;58808;59.366;17.970;2023-04-15T05:20:58;3.90;99.90
71142;DHT22;58808;59.366;17.970;2023-04-15T05:23:24;3.90;99.90
71142;DHT22;58808;59.366;17.970;2023-04-15T05:25:50;3.90;99.90
71142;DHT22;58808;59.366;17.970;2023-04-15T05:28:16;3.90;99.90
71142;DHT22;58808;59.366;17.970;2023-04-15T05:30:42;3.90;99.90
71142;DHT22;58808;59.366;17.970;2023-04-15T05:33:08;4.00;99.90
71142;DHT22;58808;59.366;17.970;2023-04-15T05:35:33;4.00;99.90
71142;DHT22;58808;59.366;17.970;2023-04-15T05:37:59;4.00;99.90
71142;DHT22;58808;59.366;17.970;2023-04-15T05:40:25;4.00;99.90
71142;DHT22;58808;59.366;17.970;2023-04-15T05:42:51;4.10;99.90
71142;DHT22;58808;59.366;17.970;2023-04-15T05:45:17;4.10;99.90
71142;DHT22;58808;59.366;17.970;2023-04-15T05:47:43;4.10;99.90
71142;DHT22;58808;59.366;17.970;2023-04-15T05:50:09;4.10;99.90
71142;DHT22;58808;59.366;17.970;2023-04-15T05:52:35;4.20;99.90
71142;DHT22;58808;59.366;17.970;2023-04-15T05:55:01;4.20;99.90
71142;DHT22;58808;59.366;17.970;2023-04-15T05:57:27;4.20;99.90
71142;DHT22;58808;59.366;17.970;2023-04-15T05:59:53;4.20;99.90
71142;DHT22;58808;59.366;17.970;2023-04-15T06:02:20;4.20;99.90
71142;DHT22;58808;59.366;17.970;2023-04-15T06:04:46;4.30;99.90
71142;DHT22;58808;59.366;17.970;2023-04-15T06:07:12;4.30;99.90
71142;DHT22;58808;59.366;17.970;2023-04-15T06:09:37;4.30;99.90
71142;DHT22;58808;59.366;17.970;2023-04-15T06:12:03;4.40;99.90
71142;DHT22;58808;59.366;17.970;2023-04-15T06:14:31;4.40;99.90
71142;DHT22;58808;59.366;17.970;2023-04-15T06:16:56;4.40;99.90
71142;DHT22;58808;59.366;17.970;2023-04-15T06:19:22;4.50;99.90
71142;DHT22;58808;59.366;17.970;2023-04-15T06:21:48;4.50;99.90
71142;DHT22;58808;59.366;17.970;2023-04-15T06:24:13;4.50;99.90
71142;DHT22;58808;59.366;17.970;2023-04-15T06:26:39;4.60;99.90
71142;DHT22;58808;59.366;17.970;2023-04-15T06:29:05;4.60;99.90
71142;DHT22;58808;59.366;17.970;2023-04-15T06:31:31;4.60;99.90
71142;DHT22;58808;59.366;17.970;2023-04-15T06:33:57;4.70;99.90
71142;DHT22;58808;59.366;17.970;2023-04-15T06:36:23;4.80;99.90
71142;DHT22;58808;59.366;17.970;2023-04-15T06:38:48;4.80;99.90
71142;DHT22;58808;59.366;17.970;2023-04-15T06:41:14;4.90;99.90
71142;DHT22;58808;59.366;17.970;2023-04-15T06:43:40;4.90;99.90
71142;DHT22;58808;59.366;17.970;2023-04-15T06:46:06;4.90;99.90
71142;DHT22;58808;59.366;17.970;2023-04-15T06:48:32;5.00;99.90
71142;DHT22;58808;59.366;17.970;2023-04-15T06:50:58;5.10;99.90
71142;DHT22;58808;59.366;17.970;2023-04-15T06:53:27;5.10;99.90
71142;DHT22;58808;59.366;17.970;2023-04-15T06:55:52;5.10;99.90
71142;DHT22;58808;59.366;17.970;2023-04-15T06:58:18;5.10;99.90
71142;DHT22;58808;59.366;17.970;2023-04-15T07:00:44;5.20;99.90
71142;DHT22;58808;59.366;17.970;2023-04-15T07:03:11;5.20;99.90
71142;DHT22;58808;59.366;17.970;2023-04-15T07:05:37;5.30;99.90
71142;DHT22;58808;59.366;17.970;2023-04-15T07:08:04;5.30;99.90
71142;DHT22;58808;59.366;17.970;2023-04-15T07:10:29;5.40;99.90
71142;DHT22;58808;59.366;17.970;2023-04-15T07:12:55;5.40;99.90
71142;DHT22;58808;59.366;17.970;2023-04-15T07:15:21;5.40;99.90
71142;DHT22;58808;59.366;17.970;2023-04-15T07:17:48;5.50;99.90
71142;DHT22;58808;59.366;17.970;2023-04-15T07:20:14;5.50;99.90
71142;DHT22;58808;59.366;17.970;2023-04-15T07:22:40;5.70;99.90
71142;DHT22;58808;59.366;17.970;2023-04-15T07:25:06;5.70;99.90
71142;DHT22;58808;59.366;17.970;2023-04-15T07:27:32;5.90;99.90
71142;DHT22;58808;59.366;17.970;2023-04-15T07:29:58;6.00;99.90
71142;DHT22;58808;59.366;17.970;2023-04-15T07:32:23;6.10;99.90
71142;DHT22;58808;59.366;17.970;2023-04-15T07:34:50;6.50;99.90
71142;DHT22;58808;59.366;17.970;2023-04-15T07:37:16;6.90;99.90
71142;DHT22;58808;59.366;17.970;2023-04-15T07:39:42;7.20;99.90
71142;DHT22;58808;59.366;17.970;2023-04-15T07:42:08;7.60;99.90
71142;DHT22;58808;59.366;17.970;2023-04-15T07:44:34;7.80;99.90
71142;DHT22;58808;59.366;17.970;2023-04-15T07:47:02;7.90;99.90
71142;DHT22;58808;59.366;17.970;2023-04-15T07:49:28;8.00;99.90
71142;DHT22;58808;59.366;17.970;2023-04-15T07:51:54;8.10;99.90
71142;DHT22;58808;59.366;17.970;2023-04-15T07:54:22;8.30;99.90
71142;DHT22;58808;59.366;17.970;2023-04-15T07:56:47;8.40;99.90
71142;DHT22;58808;59.366;17.970;2023-04-15T07:59:13;8.50;99.90
71142;DHT22;58808;59.366;17.970;2023-04-15T08:01:42;8.50;99.90
71142;DHT22;58808;59.366;17.970;2023-04-15T08:04:08;8.50;99.90
71142;DHT22;58808;59.366;17.970;2023-04-15T08:13:19;9.20;99.90
71142;DHT22;58808;59.366;17.970;2023-04-15T08:15:45;9.40;99.80
71142;DHT22;58808;59.366;17.970;2023-04-15T08:18:11;9.60;97.90
71142;DHT22;58808;59.366;17.970;2023-04-15T08:20:36;9.80;96.40
71142;DHT22;58808;59.366;17.970;2023-04-15T08:23:02;9.90;95.70
71142;DHT22;58808;59.366;17.970;2023-04-15T08:25:29;10.00;95.00
71142;DHT22;58808;59.366;17.970;2023-04-15T08:27:55;10.10;94.00
71142;DHT22;58808;59.366;17.970;2023-04-15T08:30:24;10.20;93.60
71142;DHT22;58808;59.366;17.970;2023-04-15T08:32:49;10.30;93.00
71142;DHT22;58808;59.366;17.970;2023-04-15T08:35:15;10.40;92.00
71142;DHT22;58808;59.366;17.970;2023-04-15T08:37:41;10.40;91.00
71142;DHT22;58808;59.366;17.970;2023-04-15T08:40:08;10.40;90.90
71142;DHT22;58808;59.366;17.970;2023-04-15T08:42:43;10.40;90.60
71142;DHT22;58808;59.366;17.970;2023-04-15T08:45:10;10.30;90.00
71142;DHT22;58808;59.366;17.970;2023-04-15T08:47:36;10.40;90.00
71142;DHT22;58808;59.366;17.970;2023-04-15T08:50:08;10.50;88.50
71142;DHT22;58808;59.366;17.970;2023-04-15T08:52:35;10.60;88.60
71142;DHT22;58808;59.366;17.970;2023-04-15T08:55:01;10.70;88.10
71142;DHT22;58808;59.366;17.970;2023-04-15T08:57:28;10.80;84.50
71142;DHT22;58808;59.366;17.970;2023-04-15T08:59:57;11.00;85.30
71142;DHT22;58808;59.366;17.970;2023-04-15T09:02:24;11.10;83.80
71142;DHT22;58808;59.366;17.970;2023-04-15T09:04:53;11.10;81.60
71142;DHT22;58808;59.366;17.970;2023-04-15T09:07:18;11.20;82.50
71142;DHT22;58808;59.366;17.970;2023-04-15T09:09:44;11.40;80.60
71142;DHT22;58808;59.366;17.970;2023-04-15T09:12:11;11.30;80.00
71142;DHT22;58808;59.366;17.970;2023-04-15T09:14:39;11.40;79.50
71142;DHT22;58808;59.366;17.970;2023-04-15T09:17:05;11.40;77.70
71142;DHT22;58808;59.366;17.970;2023-04-15T09:19:36;11.30;76.90
71142;DHT22;58808;59.366;17.970;2023-04-15T09:22:02;11.40;77.20
71142;DHT22;58808;59.366;17.970;2023-04-15T09:24:37;11.70;76.40
71142;DHT22;58808;59.366;17.970;2023-04-15T09:27:03;11.70;74.60
71142;DHT22;58808;59.366;17.970;2023-04-15T09:29:29;11.70;72.90
71142;DHT22;58808;59.366;17.970;2023-04-15T09:31:55;11.60;71.20
71142;DHT22;58808;59.366;17.970;2023-04-15T09:34:20;11.60;71.30
71142;DHT22;58808;59.366;17.970;2023-04-15T09:39:14;11.80;70.00
71142;DHT22;58808;59.366;17.970;2023-04-15T09:41:40;11.90;68.10
71142;DHT22;58808;59.366;17.970;2023-04-15T09:44:06;11.90;67.30
71142;DHT22;58808;59.366;17.970;2023-04-15T09:46:44;12.00;67.20
71142;DHT22;58808;59.366;17.970;2023-04-15T09:49:11;12.10;70.40
71142;DHT22;58808;59.366;17.970;2023-04-15T09:51:37;12.20;66.50
71142;DHT22;58808;59.366;17.970;2023-04-15T09:54:04;12.30;64.80
71142;DHT22;58808;59.366;17.970;2023-04-15T09:56:37;12.10;63.00
71142;DHT22;58808;59.366;17.970;2023-04-15T09:59:06;12.00;63.00
71142;DHT22;58808;59.366;17.970;2023-04-15T10:01:32;11.80;62.90
71142;DHT22;58808;59.366;17.970;2023-04-15T10:03:58;11.90;63.00
71142;DHT22;58808;59.366;17.970;2023-04-15T10:06:27;11.80;62.60
71142;DHT22;58808;59.366;17.970;2023-04-15T10:08:54;12.00;63.60
71142;DHT22;58808;59.366;17.970;2023-04-15T10:11:21;12.10;64.60
71142;DHT22;58808;59.366;17.970;2023-04-15T10:13:49;12.00;60.70
71142;DHT22;58808;59.366;17.970;2023-04-15T10:16:18;12.00;60.20
71142;DHT22;58808;59.366;17.970;2023-04-15T10:18:47;12.00;61.60
71142;DHT22;58808;59.366;17.970;2023-04-15T10:21:15;12.10;61.70
71142;DHT22;58808;59.366;17.970;2023-04-15T10:23:46;12.10;60.20
71142;DHT22;58808;59.366;17.970;2023-04-15T10:26:12;12.10;60.60
71142;DHT22;58808;59.366;17.970;2023-04-15T10:28:42;12.30;61.40
71142;DHT22;58808;59.366;17.970;2023-04-15T10:31:11;12.40;62.10
71142;DHT22;58808;59.366;17.970;2023-04-15T10:33:40;12.40;60.20
71142;DHT22;58808;59.366;17.970;2023-04-15T10:36:06;12.40;62.00
71142;DHT22;58808;59.366;17.970;2023-04-15T10:41:31;12.60;61.50
71142;DHT22;58808;59.366;17.970;2023-04-15T10:43:59;12.60;61.70
71142;DHT22;58808;59.366;17.970;2023-04-15T10:49:16;12.70;60.30
71142;DHT22;58808;59.366;17.970;2023-04-15T10:51:56;12.70;60.20
71142;DHT22;58808;59.366;17.970;2023-04-15T10:57:14;12.80;59.90
71142;DHT22;58808;59.366;17.970;2023-04-15T11:02:56;12.90;58.00
71142;DHT22;58808;59.366;17.970;2023-04-15T11:05:48;12.90;57.30
71142;DHT22;58808;59.366;17.970;2023-04-15T11:08:14;12.80;58.10
71142;DHT22;58808;59.366;17.970;2023-04-15T11:13:17;12.90;57.80
71142;DHT22;58808;59.366;17.970;2023-04-15T11:15:47;12.90;58.00
71142;DHT22;58808;59.366;17.970;2023-04-15T11:18:27;13.00;56.30
71142;DHT22;58808;59.366;17.970;2023-04-15T11:20:55;12.90;56.30
71142;DHT22;58808;59.366;17.970;2023-04-15T11:23:41;13.00;56.60
71142;DHT22;58808;59.366;17.970;2023-04-15T11:26:13;13.00;55.60
71142;DHT22;58808;59.366;17.970;2023-04-15T11:28:41;13.10;55.20
71142;DHT22;58808;59.366;17.970;2023-04-15T11:31:12;13.20;54.90
71142;DHT22;58808;59.366;17.970;2023-04-15T11:33:59;13.30;55.20
71142;DHT22;58808;59.366;17.970;2023-04-15T11:36:27;13.60;55.50
71142;DHT22;58808;59.366;17.970;2023-04-15T11:38:52;13.60;55.60
71142;DHT22;58808;59.366;17.970;2023-04-15T11:41:22;13.60;54.20
71142;DHT22;58808;59.366;17.970;2023-04-15T11:43:48;13.50;53.30
71142;DHT22;58808;59.366;17.970;2023-04-15T11:46:14;13.40;53.70
71142;DHT22;58808;59.366;17.970;2023-04-15T11:48:44;13.20;54.90
71142;DHT22;58808;59.366;17.970;2023-04-15T11:51:11;13.00;55.70
71142;DHT22;58808;59.366;17.970;2023-04-15T11:53:42;13.20;54.90
71142;DHT22;58808;59.366;17.970;2023-04-15T11:56:09;13.30;55.00
71142;DHT22;58808;59.366;17.970;2023-04-15T11:58:37;13.10;55.10
71142;DHT22;58808;59.366;17.970;2023-04-15T12:01:04;13.00;55.80
71142;DHT22;58808;59.366;17.970;2023-04-15T12:03:42;13.40;57.00
71142;DHT22;58808;59.366;17.970;2023-04-15T12:06:19;13.40;53.60
71142;DHT22;58808;59.366;17.970;2023-04-15T12:11:20;13.80;54.50
71142;DHT22;58808;59.366;17.970;2023-04-15T12:16:38;14.00;53.70
71142;DHT22;58808;59.366;17.970;2023-04-15T12:19:10;14.00;52.70
71142;DHT22;58808;59.366;17.970;2023-04-15T12:21:37;13.80;53.40
71142;DHT22;58808;59.366;17.970;2023-04-15T12:24:06;13.50;53.10
71142;DHT22;58808;59.366;17.970;2023-04-15T12:29:06;13.40;54.00
71142;DHT22;58808;59.366;17.970;2023-04-15T12:31:37;13.30;54.40
71142;DHT22;58808;59.366;17.970;2023-04-15T12:34:11;13.40;53.20
71142;DHT22;58808;59.366;17.970;2023-04-15T12:36:36;13.20;52.10
71142;DHT22;58808;59.366;17.970;2023-04-15T12:39:05;13.20;52.60
71142;DHT22;58808;59.366;17.970;2023-04-15T12:41:31;13.20;52.30
71142;DHT22;58808;59.366;17.970;2023-04-15T12:43:58;13.50;53.60
71142;DHT22;58808;59.366;17.970;2023-04-15T12:46:24;13.70;52.20
71142;DHT22;58808;59.366;17.970;2023-04-15T12:48:50;13.90;52.10
71142;DHT22;58808;59.366;17.970;2023-04-15T12:51:19;13.90;50.80
71142;DHT22;58808;59.366;17.970;2023-04-15T12:53:50;14.00;51.00
71142;DHT22;58808;59.366;17.970;2023-04-15T12:56:15;14.00;49.10
71142;DHT22;58808;59.366;17.970;2023-04-15T12:58:41;14.10;49.00
71142;DHT22;58808;59.366;17.970;2023-04-15T13:01:07;13.90;48.40
71142;DHT22;58808;59.366;17.970;2023-04-15T13:03:34;13.60;49.30
71142;DHT22;58808;59.366;17.970;2023-04-15T13:06:00;13.30;49.60
71142;DHT22;58808;59.366;17.970;2023-04-15T13:08:26;13.40;49.70
71142;DHT22;58808;59.366;17.970;2023-04-15T13:10:52;13.50;49.20
71142;DHT22;58808;59.366;17.970;2023-04-15T13:13:18;13.60;48.70
71142;DHT22;58808;59.366;17.970;2023-04-15T13:15:44;13.60;49.80
71142;DHT22;58808;59.366;17.970;2023-04-15T13:18:10;13.60;48.20
71142;DHT22;58808;59.366;17.970;2023-04-15T13:20:36;13.70;48.10
71142;DHT22;58808;59.366;17.970;2023-04-15T13:23:02;13.80;47.80
71142;DHT22;58808;59.366;17.970;2023-04-15T13:25:27;13.80;47.80
71142;DHT22;58808;59.366;17.970;2023-04-15T13:27:53;13.60;47.90
71142;DHT22;58808;59.366;17.970;2023-04-15T13:30:19;13.40;48.40
71142;DHT22;58808;59.366;17.970;2023-04-15T13:32:45;13.40;48.40
71142;DHT22;58808;59.366;17.970;2023-04-15T13:35:11;13.10;48.60
71142;DHT22;58808;59.366;17.970;2023-04-15T13:37:36;13.20;48.70
71142;DHT22;58808;59.366;17.970;2023-04-15T13:40:04;13.20;49.20
71142;DHT22;58808;59.366;17.970;2023-04-15T13:42:31;13.40;49.00
71142;DHT22;58808;59.366;17.970;2023-04-15T13:44:57;13.50;48.00
71142;DHT22;58808;59.366;17.970;2023-04-15T13:47:23;13.50;48.60
71142;DHT22;58808;59.366;17.970;2023-04-15T13:49:49;13.50;47.40
71142;DHT22;58808;59.366;17.970;2023-04-15T13:52:15;13.50;48.00
71142;DHT22;58808;59.366;17.970;2023-04-15T13:54:40;13.60;48.70
71142;DHT22;58808;59.366;17.970;2023-04-15T13:57:06;13.70;47.90
71142;DHT22;58808;59.366;17.970;2023-04-15T13:59:32;13.80;48.10
71142;DHT22;58808;59.366;17.970;2023-04-15T14:01:59;13.90;48.40
71142;DHT22;58808;59.366;17.970;2023-04-15T14:04:25;13.60;47.90
71142;DHT22;58808;59.366;17.970;2023-04-15T14:06:51;13.50;48.70
71142;DHT22;58808;59.366;17.970;2023-04-15T14:09:17;13.30;48.20
71142;DHT22;58808;59.366;17.970;2023-04-15T14:11:43;13.20;48.90
71142;DHT22;58808;59.366;17.970;2023-04-15T14:14:09;12.90;48.90
71142;DHT22;58808;59.366;17.970;2023-04-15T14:16:35;12.90;48.60
71142;DHT22;58808;59.366;17.970;2023-04-15T14:19:01;12.90;49.10
71142;DHT22;58808;59.366;17.970;2023-04-15T14:21:27;12.90;51.10
71142;DHT22;58808;59.366;17.970;2023-04-15T14:23:54;13.10;50.40
71142;DHT22;58808;59.366;17.970;2023-04-15T14:26:20;13.20;49.30
71142;DHT22;58808;59.366;17.970;2023-04-15T14:28:45;13.00;49.10
71142;DHT22;58808;59.366;17.970;2023-04-15T14:31:12;13.00;48.60
71142;DHT22;58808;59.366;17.970;2023-04-15T14:33:38;13.00;48.60
71142;DHT22;58808;59.366;17.970;2023-04-15T14:36:05;13.00;48.30
71142;DHT22;58808;59.366;17.970;2023-04-15T14:38:33;13.00;49.50
71142;DHT22;58808;59.366;17.970;2023-04-15T14:41:03;13.20;49.20
71142;DHT22;58808;59.366;17.970;2023-04-15T14:43:29;13.00;48.80
71142;DHT22;58808;59.366;17.970;2023-04-15T14:45:55;12.80;48.40
71142;DHT22;58808;59.366;17.970;2023-04-15T14:48:20;12.70;47.80
71142;DHT22;58808;59.366;17.970;2023-04-15T14:50:46;12.60;47.80
71142;DHT22;58808;59.366;17.970;2023-04-15T14:53:12;12.60;47.80
71142;DHT22;58808;59.366;17.970;2023-04-15T14:55:38;12.60;47.80
71142;DHT22;58808;59.366;17.970;2023-04-15T14:58:04;12.60;47.80
71142;DHT22;58808;59.366;17.970;2023-04-15T15:00:30;12.40;48.00
71142;DHT22;58808;59.366;17.970;2023-04-15T15:02:56;12.20;48.00
71142;DHT22;58808;59.366;17.970;2023-04-15T15:05:22;12.30;48.00
71142;DHT22;58808;59.366;17.970;2023-04-15T15:07:48;12.30;47.70
71142;DHT22;58808;59.366;17.970;2023-04-15T15:10:14;12.20;47.70
71142;DHT22;58808;59.366;17.970;2023-04-15T15:12:39;12.20;48.60
71142;DHT22;58808;59.366;17.970;2023-04-15T15:15:05;12.20;48.50
71142;DHT22;58808;59.366;17.970;2023-04-15T15:17:33;12.30;48.80
71142;DHT22;58808;59.366;17.970;2023-04-15T15:19:59;12.00;49.30
71142;DHT22;58808;59.366;17.970;2023-04-15T15:22:25;12.20;49.10
71142;DHT22;58808;59.366;17.970;2023-04-15T15:24:51;12.10;47.70
71142;DHT22;58808;59.366;17.970;2023-04-15T15:27:17;12.10;48.20
71142;DHT22;58808;59.366;17.970;2023-04-15T15:29:43;11.80;48.00
71142;DHT22;58808;59.366;17.970;2023-04-15T15:32:09;11.70;47.90
71142;DHT22;58808;59.366;17.970;2023-04-15T15:34:35;11.50;47.20
71142;DHT22;58808;59.366;17.970;2023-04-15T15:37:00;11.40;47.40
71142;DHT22;58808;59.366;17.970;2023-04-15T15:39:26;11.30;47.10
71142;DHT22;58808;59.366;17.970;2023-04-15T15:41:52;11.30;47.10
71142;DHT22;58808;59.366;17.970;2023-04-15T15:44:18;11.00;47.20
71142;DHT22;58808;59.366;17.970;2023-04-15T15:46:43;11.10;48.10
71142;DHT22;58808;59.366;17.970;2023-04-15T15:49:10;11.10;47.40
71142;DHT22;58808;59.366;17.970;2023-04-15T15:51:36;10.80;47.30
71142;DHT22;58808;59.366;17.970;2023-04-15T15:54:01;10.80;47.70